Time;durP1;ratioP1;P1;durP2;ratioP2;P2;SDS_P1;SDS_P2;PMS_P1;PMS_P2;Temp;Humidity;BMP_temperature;BMP_pressure;BME280_temperature;BME280_humidity;BME280_pressure;Samples;Min_cycle;Max_cycle;Signal;HPM_P1;HPM_P2
2022/04/10 00:01:34;;;;;;;15.10;2.88;;;3.40;99.90;;;;;;5029559;28;20046;-69
2022/04/10 00:04:00;;;;;;;14.25;2.30;;;3.40;99.90;;;;;;5010332;28;20042;-69
2022/04/10 00:06:27;;;;;;;17.67;3.47;;;3.40;99.90;;;;;;5011372;28;20417;-69
2022/04/10 00:08:53;;;;;;;15.48;2.63;;;3.40;99.90;;;;;;5012343;28;20037;-68
2022/04/10 00:11:20;;;;;;;14.70;3.10;;;3.40;99.90;;;;;;5012884;28;20421;-69
2022/04/10 00:13:46;;;;;;;31.15;9.48;;;3.40;99.90;;;;;;5002841;28;20548;-69
2022/04/10 00:16:13;;;;;;;505.35;206.20;;;3.30;99.90;;;;;;5010762;28;20053;-69
2022/04/10 00:18:39;;;;;;;79.97;31.92;;;3.30;99.90;;;;;;5025043;28;20069;-69
2022/04/10 00:21:05;;;;;;;19.80;5.82;;;3.30;99.90;;;;;;5011245;28;20424;-69
2022/04/10 00:23:31;;;;;;;13.85;3.22;;;3.20;99.90;;;;;;5012273;28;20465;-69
2022/04/10 00:25:57;;;;;;;21.60;2.83;;;3.30;99.90;;;;;;5008090;28;20045;-69
2022/04/10 00:28:23;;;;;;;18.38;3.28;;;3.20;99.90;;;;;;5011478;28;20049;-69
2022/04/10 00:30:49;;;;;;;17.33;3.03;;;3.30;99.90;;;;;;5009831;28;20053;-69
2022/04/10 00:33:14;;;;;;;16.73;2.92;;;3.30;99.90;;;;;;5009836;28;20076;-70
2022/04/10 00:35:40;;;;;;;11.38;2.67;;;3.30;99.90;;;;;;5029339;28;20113;-69
2022/04/10 00:38:08;;;;;;;13.25;2.70;;;3.30;99.90;;;;;;5024283;28;20041;-69
2022/04/10 00:40:34;;;;;;;19.17;3.20;;;3.30;99.90;;;;;;5010504;28;20038;-69
2022/04/10 00:43:00;;;;;;;17.48;3.03;;;3.30;99.90;;;;;;5025597;28;20111;-69
2022/04/10 00:45:25;;;;;;;18.90;2.70;;;3.30;99.90;;;;;;5024352;28;20075;-69
2022/04/10 00:47:51;;;;;;;24.40;2.85;;;3.30;99.90;;;;;;5007382;28;20041;-69
2022/04/10 00:50:18;;;;;;;29.73;3.70;;;3.30;99.90;;;;;;5007106;28;20406;-69
2022/04/10 00:52:47;;;;;;;15.00;2.63;;;3.30;99.90;;;;;;5009248;28;20125;-69
2022/04/10 00:55:13;;;;;;;15.18;2.58;;;3.20;99.90;;;;;;5023729;28;20099;-69
2022/04/10 00:57:39;;;;;;;11.43;2.15;;;3.20;99.90;;;;;;5024905;28;20038;-69
2022/04/10 01:00:12;;;;;;;13.98;2.72;;;3.20;99.90;;;;;;5026143;28;20044;-69
2022/04/10 01:02:39;;;;;;;14.27;2.30;;;3.20;99.90;;;;;;5007911;28;20042;-69
2022/04/10 01:05:06;;;;;;;11.75;2.00;;;3.20;99.90;;;;;;5023126;28;20060;-69
2022/04/10 01:07:33;;;;;;;10.63;3.13;;;3.20;99.90;;;;;;5025570;28;20152;-69
2022/04/10 01:09:59;;;;;;;12.68;2.00;;;3.20;99.90;;;;;;5009604;28;20042;-68
2022/04/10 01:12:24;;;;;;;10.90;1.90;;;3.20;99.90;;;;;;5007128;28;20056;-69
2022/04/10 01:14:51;;;;;;;15.27;3.15;;;3.10;99.90;;;;;;5007594;28;20524;-69
2022/04/10 01:17:19;;;;;;;16.65;2.35;;;3.10;99.90;;;;;;5026786;28;20038;-69
2022/04/10 01:19:44;;;;;;;15.95;3.22;;;3.10;99.90;;;;;;5023577;28;20057;-70
2022/04/10 01:22:19;;;;;;;21.40;2.55;;;3.10;99.90;;;;;;5024738;28;20151;-69
2022/04/10 01:24:44;;;;;;;16.00;2.65;;;3.00;99.90;;;;;;5007389;28;20041;-69
2022/04/10 01:27:10;;;;;;;15.95;3.17;;;3.00;99.90;;;;;;5028241;28;20121;-69
2022/04/10 01:29:36;;;;;;;17.77;4.35;;;3.00;99.90;;;;;;5027892;28;20044;-69
2022/04/10 01:32:02;;;;;;;11.13;2.20;;;3.00;99.90;;;;;;5027497;28;20421;-68
2022/04/10 01:34:27;;;;;;;12.50;2.92;;;3.00;99.90;;;;;;5007529;28;20061;-68
2022/04/10 01:36:53;;;;;;;13.85;3.00;;;3.00;99.90;;;;;;5009302;28;20045;-69
2022/04/10 01:39:19;;;;;;;12.88;2.22;;;3.00;99.90;;;;;;5003396;28;20038;-69
2022/04/10 01:41:46;;;;;;;10.35;2.28;;;3.00;99.90;;;;;;5005729;28;20057;-69
2022/04/10 01:44:12;;;;;;;11.75;2.47;;;2.90;99.90;;;;;;5021521;28;20114;-69
2022/04/10 01:46:38;;;;;;;9.23;2.95;;;2.90;99.90;;;;;;5005549;28;20398;-69
2022/04/10 01:49:05;;;;;;;12.57;3.42;;;3.00;99.90;;;;;;5025851;28;20048;-69
2022/04/10 01:51:31;;;;;;;13.50;2.40;;;3.00;99.90;;;;;;5009168;28;20045;-69
2022/04/10 01:53:58;;;;;;;14.05;3.60;;;3.00;99.90;;;;;;5007136;28;20128;-69
2022/04/10 01:56:24;;;;;;;12.18;2.22;;;3.00;99.90;;;;;;5008668;28;20072;-70
2022/04/10 01:58:52;;;;;;;13.75;2.20;;;3.00;99.90;;;;;;5008788;28;20065;-69
2022/04/10 02:01:18;;;;;;;21.17;3.75;;;3.00;99.90;;;;;;5007534;28;20473;-69
2022/04/10 02:03:47;;;;;;;11.43;2.58;;;2.90;99.90;;;;;;5003882;28;20065;-69
2022/04/10 02:06:14;;;;;;;10.57;2.47;;;2.90;99.90;;;;;;5007807;28;20671;-69
2022/04/10 02:08:41;;;;;;;12.75;1.88;;;2.90;99.90;;;;;;5027297;28;20037;-68
2022/04/10 02:11:21;;;;;;;14.93;2.38;;;2.90;99.90;;;;;;5008335;28;20069;-70
2022/04/10 02:13:47;;;;;;;11.07;2.20;;;2.90;99.90;;;;;;5008526;28;20049;-70
2022/04/10 02:16:15;;;;;;;9.15;2.45;;;2.90;99.90;;;;;;5006170;28;20390;-69
2022/04/10 02:18:41;;;;;;;10.35;3.15;;;2.80;99.90;;;;;;5008843;28;20065;-69
2022/04/10 02:21:07;;;;;;;10.55;2.08;;;2.80;99.90;;;;;;5009486;28;20128;-69
2022/04/10 02:23:33;;;;;;;11.38;2.20;;;2.70;99.90;;;;;;5025299;28;20145;-69
2022/04/10 02:25:59;;;;;;;10.38;2.35;;;2.70;99.90;;;;;;5006685;28;20482;-69
2022/04/10 02:28:25;;;;;;;11.65;2.17;;;2.80;99.90;;;;;;5007797;28;20045;-69
2022/04/10 02:30:50;;;;;;;11.75;2.20;;;2.80;99.90;;;;;;5024131;28;20048;-70
2022/04/10 02:33:16;;;;;;;12.80;2.60;;;2.90;99.90;;;;;;5025892;28;20037;-69
2022/04/10 02:35:43;;;;;;;12.75;2.40;;;3.00;99.90;;;;;;5009276;28;20064;-70
2022/04/10 02:38:09;;;;;;;9.80;1.50;;;2.90;99.90;;;;;;5004798;28;20050;-69
2022/04/10 02:40:34;;;;;;;6.82;1.48;;;3.00;99.90;;;;;;5007066;28;20179;-70
2022/04/10 02:43:00;;;;;;;5.25;1.38;;;2.90;99.90;;;;;;5025902;28;20067;-69
2022/04/10 02:45:26;;;;;;;2.88;0.98;;;2.90;99.90;;;;;;5005321;28;20144;-69
2022/04/10 02:47:51;;;;;;;2.08;0.75;;;2.90;99.90;;;;;;5021851;28;20099;-68
2022/04/10 02:50:17;;;;;;;4.70;1.02;;;2.90;99.90;;;;;;5005683;28;20053;-68
2022/04/10 02:52:42;;;;;;;3.90;0.88;;;2.90;99.90;;;;;;5022376;28;20065;-68
2022/04/10 02:55:09;;;;;;;3.97;1.02;;;2.90;99.90;;;;;;5010039;28;20091;-68
2022/04/10 02:57:35;;;;;;;7.05;1.13;;;3.00;99.90;;;;;;5030263;28;20073;-68
2022/04/10 03:00:01;;;;;;;5.20;1.00;;;2.90;99.90;;;;;;5028854;28;20057;-72
2022/04/10 03:02:26;;;;;;;5.47;1.95;;;3.00;99.90;;;;;;5013826;28;20042;-69
2022/04/10 03:04:52;;;;;;;6.05;0.95;;;3.10;99.90;;;;;;5012182;28;20065;-69
2022/04/10 03:07:18;;;;;;;4.57;1.30;;;3.10;99.90;;;;;;5011754;28;20058;-69
2022/04/10 03:09:43;;;;;;;7.97;1.80;;;3.20;99.90;;;;;;5013472;28;20061;-69
2022/04/10 03:12:09;;;;;;;9.43;1.42;;;3.20;99.90;;;;;;5013093;28;20052;-69
2022/04/10 03:14:35;;;;;;;8.73;1.63;;;3.20;99.90;;;;;;5031206;28;20041;-69
2022/04/10 03:17:01;;;;;;;9.85;2.13;;;3.20;99.90;;;;;;5030040;28;20072;-69
2022/04/10 03:19:28;;;;;;;6.38;1.40;;;3.20;99.90;;;;;;5011456;28;20390;-69
2022/04/10 03:21:54;;;;;;;7.88;1.85;;;3.10;99.90;;;;;;5009718;28;20052;-68
2022/04/10 03:24:19;;;;;;;11.10;2.38;;;3.10;99.90;;;;;;5029462;28;20053;-68
2022/04/10 03:26:45;;;;;;;10.95;1.60;;;3.20;99.90;;;;;;5013001;28;20045;-68
2022/04/10 03:29:12;;;;;;;8.85;1.83;;;3.10;99.90;;;;;;5011548;28;20037;-68
2022/04/10 03:31:38;;;;;;;28.85;2.65;;;3.10;99.90;;;;;;5012796;28;20107;-69
2022/04/10 03:34:04;;;;;;;9.05;2.50;;;3.10;99.90;;;;;;5009751;28;20053;-69
2022/04/10 03:36:29;;;;;;;9.70;2.05;;;3.00;99.90;;;;;;5009113;28;20053;-70
2022/04/10 03:38:55;;;;;;;15.30;3.00;;;3.00;99.90;;;;;;5030839;28;20041;-69
2022/04/10 03:41:20;;;;;;;6.15;1.38;;;3.00;99.90;;;;;;5027697;28;20489;-69
2022/04/10 03:43:46;;;;;;;9.10;2.00;;;3.00;99.90;;;;;;5028088;28;20044;-68
2022/04/10 03:46:12;;;;;;;6.57;1.40;;;3.00;99.90;;;;;;5026629;28;20050;-68
2022/04/10 03:48:37;;;;;;;7.85;2.42;;;3.00;99.90;;;;;;5028733;28;20523;-68
2022/04/10 03:51:03;;;;;;;10.48;1.63;;;3.00;99.90;;;;;;5007779;28;20038;-69
2022/04/10 03:53:28;;;;;;;7.07;1.30;;;3.00;99.90;;;;;;5011495;28;20044;-69
2022/04/10 03:55:54;;;;;;;10.68;1.70;;;3.00;99.90;;;;;;5028856;28;20390;-69
2022/04/10 03:58:20;;;;;;;5.50;1.42;;;2.90;99.90;;;;;;5026624;28;21693;-69
2022/04/10 04:00:47;;;;;;;11.65;1.75;;;2.90;99.90;;;;;;5028354;28;20167;-69
2022/04/10 04:03:13;;;;;;;5.68;1.27;;;2.90;99.90;;;;;;5026280;28;20675;-69
2022/04/10 04:05:39;;;;;;;7.60;1.63;;;2.80;99.90;;;;;;5010656;28;20037;-69
2022/04/10 04:08:04;;;;;;;7.43;1.35;;;2.90;99.90;;;;;;5027593;28;20081;-69
2022/04/10 04:10:30;;;;;;;6.75;1.90;;;2.90;99.90;;;;;;5010877;28;20073;-69
2022/04/10 04:12:56;;;;;;;7.13;1.77;;;2.90;99.90;;;;;;5010614;28;20057;-69
2022/04/10 04:15:21;;;;;;;8.95;1.55;;;2.90;99.90;;;;;;5026393;28;20404;-69
2022/04/10 04:17:47;;;;;;;9.65;1.40;;;2.90;99.90;;;;;;5029829;28;20096;-69
2022/04/10 04:20:13;;;;;;;9.38;1.88;;;2.90;99.90;;;;;;5026976;28;20442;-69
2022/04/10 04:22:39;;;;;;;10.93;1.75;;;2.90;99.90;;;;;;5011406;28;20413;-69
2022/04/10 04:25:06;;;;;;;9.25;1.85;;;2.90;99.90;;;;;;5027243;28;20053;-69
2022/04/10 04:27:32;;;;;;;8.65;2.35;;;2.80;99.90;;;;;;5028720;28;20045;-69
2022/04/10 04:29:58;;;;;;;9.82;2.05;;;2.80;99.90;;;;;;5011557;28;20101;-69
2022/04/10 04:32:23;;;;;;;8.90;2.03;;;2.80;99.90;;;;;;5010795;28;20046;-70
2022/04/10 04:34:49;;;;;;;11.55;1.90;;;2.80;99.90;;;;;;5010465;28;20045;-69
2022/04/10 04:37:15;;;;;;;9.40;2.10;;;2.90;99.90;;;;;;5008287;28;20049;-69
2022/04/10 04:39:40;;;;;;;5.90;1.70;;;2.90;99.90;;;;;;5008215;28;20136;-69
2022/04/10 04:42:07;;;;;;;11.82;2.22;;;2.90;99.90;;;;;;5010339;28;20045;-69
2022/04/10 04:44:32;;;;;;;20.77;2.40;;;2.90;99.90;;;;;;5009710;28;20064;-69
2022/04/10 04:46:59;;;;;;;14.55;2.13;;;2.90;99.90;;;;;;5028640;28;20049;-69
2022/04/10 04:49:25;;;;;;;9.32;2.38;;;2.90;99.90;;;;;;5009950;28;20057;-69
2022/04/10 04:51:51;;;;;;;7.38;1.73;;;3.00;99.90;;;;;;5025717;28;20048;-69
2022/04/10 04:54:16;;;;;;;13.00;2.30;;;3.00;99.90;;;;;;5007832;28;20409;-69
2022/04/10 04:56:42;;;;;;;9.52;1.80;;;3.00;99.90;;;;;;5029537;28;20034;-69
2022/04/10 04:59:07;;;;;;;10.45;1.92;;;3.00;99.90;;;;;;5008679;28;20061;-70
2022/04/10 05:01:33;;;;;;;4.55;1.60;;;3.00;99.90;;;;;;5028250;28;20220;-69
2022/04/10 05:03:59;;;;;;;7.25;1.95;;;3.00;99.90;;;;;;5009460;28;20042;-69
2022/04/10 05:06:25;;;;;;;8.63;1.60;;;2.90;99.90;;;;;;5011460;28;20103;-69
2022/04/10 05:08:51;;;;;;;7.43;1.40;;;3.00;99.90;;;;;;5026086;28;20432;-69
2022/04/10 05:11:18;;;;;;;13.20;2.00;;;3.00;99.90;;;;;;5009948;28;20037;-69
2022/04/10 05:13:45;;;;;;;8.02;1.40;;;3.00;99.90;;;;;;5033092;28;20049;-69
2022/04/10 05:16:11;;;;;;;6.80;2.15;;;3.00;99.90;;;;;;5023573;28;20548;-69
2022/04/10 05:18:37;;;;;;;8.05;1.75;;;3.10;99.90;;;;;;5026372;28;20052;-69
2022/04/10 05:21:03;;;;;;;6.82;1.65;;;3.10;99.90;;;;;;5008360;28;20524;-68
2022/04/10 05:23:29;;;;;;;4.82;1.10;;;3.20;99.90;;;;;;5026017;28;20061;-69
2022/04/10 05:25:55;;;;;;;5.13;1.33;;;3.30;99.90;;;;;;5009128;28;20053;-69
2022/04/10 05:28:22;;;;;;;3.70;1.05;;;3.40;99.90;;;;;;5008834;28;20132;-69
2022/04/10 05:30:47;;;;;;;4.47;1.10;;;3.40;99.90;;;;;;5008869;28;20455;-69
2022/04/10 05:33:13;;;;;;;6.88;1.35;;;3.50;99.90;;;;;;5005845;28;20136;-69
2022/04/10 05:35:40;;;;;;;7.55;1.10;;;3.40;99.90;;;;;;5010495;28;20124;-69
2022/04/10 05:38:06;;;;;;;5.53;1.33;;;3.40;99.90;;;;;;5008615;28;20033;-69
2022/04/10 05:40:32;;;;;;;4.70;1.00;;;3.40;99.90;;;;;;5024963;28;20046;-69
2022/04/10 05:42:58;;;;;;;3.95;1.20;;;3.40;99.90;;;;;;5009074;28;20045;-69
2022/04/10 05:45:23;;;;;;;5.40;1.20;;;3.40;99.90;;;;;;5028013;28;20045;-69
2022/04/10 05:47:49;;;;;;;4.22;0.85;;;3.50;99.90;;;;;;5007450;28;20053;-69
2022/04/10 05:50:17;;;;;;;2.15;0.90;;;3.60;99.90;;;;;;5027690;28;20456;-69
2022/04/10 05:52:45;;;;;;;7.70;1.42;;;3.60;99.90;;;;;;5025313;28;20528;-69
2022/04/10 05:55:12;;;;;;;8.30;1.67;;;3.70;99.90;;;;;;5026511;28;20033;-69
2022/04/10 05:57:39;;;;;;;14.82;3.17;;;3.90;99.90;;;;;;5009822;28;20056;-69
2022/04/10 06:00:07;;;;;;;9.80;1.33;;;4.00;99.90;;;;;;5007821;28;20096;-69
2022/04/10 06:02:33;;;;;;;9.60;1.80;;;4.10;99.90;;;;;;5007535;28;20053;-69
2022/04/10 06:04:59;;;;;;;13.10;1.85;;;4.30;99.90;;;;;;5010816;28;20052;-69
2022/04/10 06:07:25;;;;;;;8.48;1.90;;;4.40;99.90;;;;;;5026599;28;20045;-69
2022/04/10 06:09:51;;;;;;;6.25;1.60;;;4.50;99.90;;;;;;5024234;28;20038;-69
2022/04/10 06:12:16;;;;;;;9.65;1.90;;;4.60;99.90;;;;;;5007267;28;20041;-69
2022/04/10 06:14:42;;;;;;;10.15;2.60;;;4.80;99.90;;;;;;5004494;28;20136;-69
2022/04/10 06:17:08;;;;;;;9.70;1.80;;;5.00;99.90;;;;;;5003381;28;20089;-69
2022/04/10 06:19:34;;;;;;;15.10;2.28;;;5.10;99.90;;;;;;5008791;28;20049;-69
2022/04/10 06:22:00;;;;;;;20.10;3.70;;;5.30;99.90;;;;;;5008103;28;20545;-69
2022/04/10 06:24:27;;;;;;;15.05;1.85;;;5.20;99.90;;;;;;5007239;28;20038;-69
2022/04/10 06:26:56;;;;;;;8.98;2.58;;;5.20;99.90;;;;;;5002422;28;20128;-69
2022/04/10 06:29:22;;;;;;;7.95;1.70;;;5.10;99.90;;;;;;5024429;28;20390;-68
2022/04/10 06:31:48;;;;;;;8.18;1.98;;;5.00;99.90;;;;;;5024784;28;20063;-69
2022/04/10 06:34:14;;;;;;;9.45;2.03;;;5.00;99.90;;;;;;5009317;28;20053;-69
2022/04/10 06:36:40;;;;;;;8.88;2.10;;;5.00;99.90;;;;;;5008534;28;20129;-69
2022/04/10 06:39:06;;;;;;;12.02;2.00;;;5.10;99.90;;;;;;5006902;28;20052;-69
2022/04/10 06:41:32;;;;;;;12.00;2.25;;;5.20;99.90;;;;;;5024369;28;20041;-69
2022/04/10 06:43:57;;;;;;;14.43;1.88;;;5.30;99.90;;;;;;5026555;28;20045;-69
2022/04/10 06:46:26;;;;;;;16.70;2.83;;;5.50;99.90;;;;;;5025556;28;20059;-69
2022/04/10 06:48:52;;;;;;;13.52;2.20;;;5.70;99.90;;;;;;5008781;28;20550;-69
2022/04/10 06:51:17;;;;;;;7.53;2.30;;;6.00;99.90;;;;;;5024079;28;20125;-72
2022/04/10 06:53:43;;;;;;;13.88;2.20;;;6.20;99.90;;;;;;5009103;28;20078;-72
2022/04/10 06:56:09;;;;;;;8.93;2.22;;;6.30;99.90;;;;;;5009713;28;20125;-73
2022/04/10 06:58:34;;;;;;;8.63;1.92;;;6.30;99.90;;;;;;5028126;28;20049;-72
2022/04/10 07:01:01;;;;;;;10.60;1.77;;;6.40;99.90;;;;;;5025806;28;20033;-72
2022/04/10 07:03:27;;;;;;;10.63;1.95;;;6.50;99.90;;;;;;5024642;28;20048;-71
2022/04/10 07:05:52;;;;;;;12.00;2.15;;;6.70;99.90;;;;;;5026134;28;20046;-71
2022/04/10 07:08:18;;;;;;;14.20;2.50;;;6.60;99.90;;;;;;5009876;28;20593;-71
2022/04/10 07:10:47;;;;;;;12.40;2.05;;;6.60;99.90;;;;;;5028294;28;20080;-69
2022/04/10 07:13:20;;;;;;;8.68;1.77;;;6.70;99.90;;;;;;5026868;28;20049;-68
2022/04/10 07:15:47;;;;;;;12.40;2.65;;;6.90;99.90;;;;;;5008120;28;20129;-68
2022/04/10 07:18:13;;;;;;;9.23;2.28;;;7.10;99.90;;;;;;5026632;28;20623;-68
2022/04/10 07:20:39;;;;;;;12.25;2.25;;;7.20;99.90;;;;;;5026461;28;20064;-69
2022/04/10 07:25:49;;;;;;;12.45;3.00;;;7.00;99.90;;;;;;5007785;28;20045;-69
2022/04/10 07:28:14;;;;;;;6.68;1.80;;;7.00;99.90;;;;;;5007896;28;20547;-68
2022/04/10 07:30:41;;;;;;;16.08;2.13;;;7.10;99.90;;;;;;5009547;28;20037;-68
2022/04/10 07:33:08;;;;;;;12.43;2.22;;;7.30;99.90;;;;;;5019436;28;20448;-69
2022/04/10 07:35:35;;;;;;;19.52;3.03;;;7.50;99.90;;;;;;5024415;28;20580;-69
2022/04/10 07:38:01;;;;;;;11.55;2.38;;;7.60;99.90;;;;;;5024371;28;20120;-70
2022/04/10 07:40:27;;;;;;;8.48;1.98;;;7.60;99.90;;;;;;5025842;28;20402;-69
2022/04/10 07:42:53;;;;;;;10.40;1.92;;;7.40;99.90;;;;;;5009831;28;20041;-69
2022/04/10 07:48:03;;;;;;;13.65;2.35;;;7.30;99.90;;;;;;5027577;28;20050;-68
2022/04/10 07:50:29;;;;;;;12.18;1.98;;;7.60;99.90;;;;;;5028363;28;20490;-69
2022/04/10 07:52:55;;;;;;;10.43;2.15;;;7.80;99.90;;;;;;5010496;28;20045;-67
2022/04/10 07:55:22;;;;;;;11.90;2.00;;;8.10;99.90;;;;;;5007997;28;20058;-69
2022/04/10 07:57:51;;;;;;;13.93;2.28;;;8.30;99.90;;;;;;5009918;28;20568;-68
2022/04/10 08:00:17;;;;;;;14.18;2.15;;;8.20;99.90;;;;;;5026805;28;20038;-69
2022/04/10 08:02:47;;;;;;;8.02;2.20;;;8.10;99.90;;;;;;5007829;28;20050;-69
2022/04/10 08:05:14;;;;;;;9.20;2.80;;;7.80;99.90;;;;;;5009665;28;20049;-69
2022/04/10 08:07:41;;;;;;;18.27;2.90;;;7.50;99.90;;;;;;5010362;28;20430;-69
2022/04/10 08:10:07;;;;;;;12.25;1.77;;;7.40;99.90;;;;;;5026726;28;20596;-68
2022/04/10 08:12:33;;;;;;;10.32;1.98;;;7.30;99.90;;;;;;5013201;28;20091;-68
2022/04/10 08:14:59;;;;;;;11.85;2.28;;;7.40;99.90;;;;;;5010960;28;20049;-70
2022/04/10 08:17:25;;;;;;;11.55;2.60;;;7.60;99.90;;;;;;5008510;28;20103;-68
2022/04/10 08:19:50;;;;;;;9.50;2.25;;;7.70;99.90;;;;;;5011715;28;20096;-69
2022/04/10 08:22:23;;;;;;;11.13;2.33;;;7.80;99.90;;;;;;5024229;28;20120;-69
2022/04/10 08:24:49;;;;;;;10.20;2.00;;;7.90;99.90;;;;;;5005224;28;20101;-70
2022/04/10 08:27:15;;;;;;;8.25;2.05;;;8.10;99.90;;;;;;5025343;28;20054;-69
2022/04/10 08:29:41;;;;;;;9.60;2.28;;;8.30;99.90;;;;;;5002290;28;20124;-69
2022/04/10 08:32:07;;;;;;;13.27;2.28;;;8.40;99.90;;;;;;5003348;28;20137;-69
2022/04/10 08:34:32;;;;;;;7.38;1.75;;;8.40;99.90;;;;;;5022756;28;20135;-70
2022/04/10 08:37:04;;;;;;;12.57;2.50;;;8.50;99.90;;;;;;5004888;28;20045;-67
2022/04/10 08:39:33;;;;;;;11.60;2.08;;;8.50;99.90;;;;;;5026505;28;20053;-69
2022/04/10 08:42:06;;;;;;;7.10;1.60;;;8.50;99.90;;;;;;5022826;28;20566;-69
2022/04/10 08:44:32;;;;;;;15.30;3.30;;;8.40;99.90;;;;;;5019812;28;20650;-69
2022/04/10 08:47:00;;;;;;;15.57;2.75;;;8.40;99.90;;;;;;5006589;28;20037;-68
2022/04/10 08:49:27;;;;;;;11.88;1.90;;;8.60;99.90;;;;;;5007817;28;20048;-69
2022/04/10 08:51:53;;;;;;;8.82;1.83;;;8.70;99.90;;;;;;5005416;28;20049;-69
2022/04/10 08:54:20;;;;;;;7.40;2.22;;;8.70;99.90;;;;;;5011641;28;20064;-69
2022/04/10 08:56:46;;;;;;;8.98;1.92;;;8.60;99.90;;;;;;5009497;28;20042;-69
2022/04/10 08:59:12;;;;;;;10.30;2.05;;;8.60;99.90;;;;;;5009382;28;20045;-68
2022/04/10 09:01:38;;;;;;;12.02;2.15;;;8.40;99.90;;;;;;5026554;28;20057;-69
2022/04/10 09:04:04;;;;;;;11.57;2.20;;;8.30;99.90;;;;;;5008079;28;20477;-68
2022/04/10 09:06:30;;;;;;;7.65;1.48;;;8.40;99.90;;;;;;5029002;28;20053;-68
2022/04/10 09:09:22;;;;;;;8.70;1.80;;;8.60;99.90;;;;;;5007706;28;20045;-69
2022/04/10 09:11:47;;;;;;;10.05;1.73;;;8.90;99.90;;;;;;5002252;28;20050;-68
2022/04/10 09:14:23;;;;;;;10.45;1.80;;;8.90;99.90;;;;;;5008302;28;20057;-68
2022/04/10 09:17:10;;;;;;;9.77;1.70;;;9.10;99.90;;;;;;5005649;28;20076;-69
2022/04/10 09:19:37;;;;;;;13.32;1.85;;;9.10;99.90;;;;;;5004890;28;20057;-69
2022/04/10 09:22:21;;;;;;;7.00;1.65;;;9.00;99.90;;;;;;5001441;28;20072;-69
2022/04/10 09:25:15;;;;;;;9.10;1.60;;;8.80;99.90;;;;;;5005587;28;20051;-68
2022/04/10 09:27:48;;;;;;;7.80;1.80;;;8.80;99.90;;;;;;5026203;28;20401;-69
2022/04/10 09:30:14;;;;;;;;;;;8.80;99.90;;;;;;5001845;28;20498;-68
2022/04/10 09:32:42;;;;;;;8.98;1.55;;;8.90;99.90;;;;;;5022371;28;19972;-69
2022/04/10 09:35:15;;;;;;;12.05;1.85;;;9.00;99.90;;;;;;5029989;28;20389;-68
2022/04/10 09:37:47;;;;;;;8.77;2.05;;;9.20;99.90;;;;;;5010199;28;20042;-69
2022/04/10 09:40:39;;;;;;;9.38;2.25;;;9.50;99.90;;;;;;4994777;28;20187;-70
2022/04/10 09:43:07;;;;;;;10.13;2.00;;;9.60;99.90;;;;;;5001014;28;20061;-70
2022/04/10 09:45:40;;;;;;;12.30;1.77;;;9.40;99.90;;;;;;5008043;28;20152;-70
2022/04/10 09:48:26;;;;;;;7.47;1.58;;;9.30;99.90;;;;;;5007037;28;20047;-69
2022/04/10 09:51:03;;;;;;;5.50;1.70;;;9.40;99.90;;;;;;5004664;28;20067;-68
2022/04/10 09:53:31;;;;;;;8.85;1.65;;;9.40;99.90;;;;;;5008277;28;20132;-69
2022/04/10 09:56:02;;;;;;;12.98;1.90;;;9.30;99.90;;;;;;5025413;28;20044;-69
2022/04/10 09:58:28;;;;;;;9.32;1.98;;;9.20;99.90;;;;;;5028461;28;20053;-69
2022/04/10 10:00:55;;;;;;;8.10;2.13;;;9.30;99.90;;;;;;5024386;28;20111;-69
2022/04/10 10:03:26;;;;;;;10.75;1.95;;;9.50;99.90;;;;;;5025184;28;20057;-69
2022/04/10 10:05:53;;;;;;;11.93;2.67;;;9.70;99.90;;;;;;5026032;28;20513;-69
2022/04/10 10:08:19;;;;;;;10.00;1.95;;;9.80;99.90;;;;;;5006483;28;20083;-69
2022/04/10 10:10:45;;;;;;;6.05;1.50;;;10.00;99.90;;;;;;5009717;28;20042;-69
2022/04/10 10:13:14;;;;;;;15.38;2.45;;;10.00;99.90;;;;;;5008072;28;20045;-68
2022/04/10 10:15:44;;;;;;;11.65;1.83;;;10.00;99.90;;;;;;5007478;28;20033;-68
2022/04/10 10:18:11;;;;;;;8.23;1.88;;;10.30;99.90;;;;;;5006516;28;20546;-68
2022/04/10 10:20:40;;;;;;;9.43;2.30;;;10.40;99.90;;;;;;5009011;28;20410;-68
2022/04/10 10:23:15;;;;;;;5.53;1.40;;;10.10;99.90;;;;;;5026567;28;20152;-68
2022/04/10 10:25:43;;;;;;;9.30;1.98;;;10.00;99.90;;;;;;5024332;28;20566;-68
2022/04/10 10:28:15;;;;;;;6.15;1.30;;;10.10;99.90;;;;;;5026479;28;20421;-70
2022/04/10 10:31:02;;;;;;;9.20;1.90;;;10.10;99.90;;;;;;5007030;28;20045;-69
2022/04/10 10:33:30;;;;;;;15.70;2.38;;;10.20;99.90;;;;;;5025484;28;20072;-69
2022/04/10 10:35:59;;;;;;;6.43;1.88;;;10.10;99.90;;;;;;5006514;28;20064;-69
2022/04/10 10:38:30;;;;;;;6.45;1.70;;;9.90;99.90;;;;;;5025173;28;20631;-69
2022/04/10 10:41:16;;;;;;;10.68;2.05;;;9.90;99.90;;;;;;5025905;28;20049;-68
2022/04/10 10:43:42;;;;;;;9.02;1.60;;;10.10;99.90;;;;;;4990665;28;20125;-69
2022/04/10 10:46:28;;;;;;;6.90;1.50;;;10.10;99.90;;;;;;5004817;28;20519;-76
2022/04/10 10:49:14;;;;;;;8.30;1.67;;;10.10;99.90;;;;;;5007273;28;20509;-74
2022/04/10 10:51:43;;;;;;;11.00;1.70;;;9.90;99.90;;;;;;5008244;28;20064;-74
2022/04/10 10:54:14;;;;;;;11.30;2.03;;;10.00;99.90;;;;;;5008603;28;20045;-76
2022/04/10 10:56:42;;;;;;;5.10;1.77;;;10.10;99.90;;;;;;5026822;28;20107;-75
2022/04/10 10:59:23;;;;;;;14.77;2.05;;;10.40;99.90;;;;;;5008956;28;20670;-73
2022/04/10 11:02:01;;;;;;;13.52;2.13;;;10.70;99.90;;;;;;5005731;28;20037;-76
2022/04/10 11:04:30;;;;;;;8.15;2.38;;;11.00;99.90;;;;;;4996021;28;20046;-76
2022/04/10 11:07:21;;;;;;;7.38;1.67;;;11.10;99.90;;;;;;5012389;28;20037;-76
2022/04/10 11:09:58;;;;;;;6.72;1.88;;;11.00;99.90;;;;;;5011697;28;20052;-71
2022/04/10 11:12:31;;;;;;;7.45;1.17;;;10.90;99.90;;;;;;5006435;28;20054;-71
2022/04/10 11:14:59;;;;;;;7.72;1.85;;;11.10;99.90;;;;;;5005124;28;21726;-71
2022/04/10 11:17:30;;;;;;;8.00;1.80;;;11.30;99.90;;;;;;5000561;28;20041;-68
2022/04/10 11:19:57;;;;;;;8.30;1.60;;;11.30;99.90;;;;;;5026016;28;20050;-69
2022/04/10 11:22:30;;;;;;;8.40;1.58;;;11.40;99.90;;;;;;5024761;28;20080;-71
2022/04/10 11:25:03;;;;;;;8.70;1.50;;;11.40;99.90;;;;;;5007065;28;20049;-69
2022/04/10 11:27:55;;;;;;;4.60;1.38;;;11.30;99.90;;;;;;5022814;28;20048;-68
2022/04/10 11:30:23;;;;;;;5.72;1.48;;;11.30;99.90;;;;;;5006135;28;20046;-69
2022/04/10 11:32:54;;;;;;;8.77;1.88;;;11.40;99.90;;;;;;5010324;28;20621;-70
2022/04/10 11:35:25;;;;;;;5.95;1.48;;;11.60;99.90;;;;;;5005599;28;20037;-70
2022/04/10 11:37:54;;;;;;;6.32;1.40;;;11.80;99.90;;;;;;5012111;28;20083;-71
2022/04/10 11:40:24;;;;;;;10.18;2.08;;;11.90;99.90;;;;;;5010680;28;20083;-71
2022/04/10 11:42:53;;;;;;;6.00;1.45;;;11.80;99.90;;;;;;5008307;28;20045;-72
2022/04/10 11:45:19;;;;;;;6.90;1.40;;;11.70;99.90;;;;;;5026748;28;20036;-70
2022/04/10 11:47:45;;;;;;;6.00;1.38;;;11.40;99.90;;;;;;5011197;28;20436;-70
2022/04/10 11:50:14;;;;;;;11.13;1.60;;;11.10;99.90;;;;;;5026001;28;20037;-70
2022/04/10 11:52:59;;;;;;;8.02;1.45;;;10.70;99.90;;;;;;5007842;28;20128;-70
2022/04/10 11:55:36;;;;;;;6.57;1.23;;;10.50;99.90;;;;;;5027605;28;20037;-70
2022/04/10 11:58:22;;;;;;;4.63;1.20;;;10.30;99.90;;;;;;5010044;28;20053;-71
2022/04/10 12:00:59;;;;;;;4.78;1.23;;;10.10;99.90;;;;;;5011373;28;20050;-70
2022/04/10 12:03:26;;;;;;;9.13;1.25;;;10.10;99.90;;;;;;5025921;28;22656;-71
2022/04/10 12:05:53;;;;;;;9.98;2.05;;;10.10;99.90;;;;;;5028801;28;20038;-70
2022/04/10 12:08:20;;;;;;;3.85;1.27;;;10.00;99.90;;;;;;5011455;28;20052;-70
2022/04/10 12:10:57;;;;;;;8.73;1.80;;;9.80;99.90;;;;;;5010393;28;20041;-70
2022/04/10 12:13:38;;;;;;;12.93;1.70;;;9.80;99.90;;;;;;5027720;28;20057;-70
2022/04/10 12:16:17;;;;;;;8.23;1.50;;;9.90;99.90;;;;;;5026649;28;20045;-71
2022/04/10 12:18:50;;;;;;;11.73;1.80;;;10.10;99.90;;;;;;5012019;28;20049;-71
2022/04/10 12:21:17;;;;;;;9.47;1.90;;;10.40;99.90;;;;;;5028521;28;20041;-71
2022/04/10 12:23:43;;;;;;;9.05;1.77;;;10.70;99.90;;;;;;5008033;28;20050;-71
2022/04/10 12:26:09;;;;;;;11.88;1.55;;;10.90;99.90;;;;;;5025944;28;20072;-71
2022/04/10 12:28:35;;;;;;;7.10;1.30;;;10.90;99.90;;;;;;5024701;28;20486;-71
2022/04/10 12:31:02;;;;;;;7.60;1.45;;;11.00;99.90;;;;;;5026785;28;20053;-72
2022/04/10 12:33:29;;;;;;;7.07;1.55;;;11.10;99.90;;;;;;5010981;28;20044;-71
2022/04/10 12:35:55;;;;;;;7.93;1.50;;;11.20;99.90;;;;;;5024413;28;20282;-76
2022/04/10 12:38:21;;;;;;;6.85;1.50;;;11.30;99.90;;;;;;5023906;28;20050;-70
2022/04/10 12:40:47;;;;;;;6.68;1.50;;;11.20;99.90;;;;;;5009128;28;20158;-71
2022/04/10 12:43:13;;;;;;;7.68;1.60;;;11.00;99.90;;;;;;5008673;28;20069;-69
2022/04/10 12:45:40;;;;;;;4.47;1.20;;;10.80;99.90;;;;;;5009441;28;20412;-69
2022/04/10 12:48:26;;;;;;;6.28;1.27;;;10.70;99.90;;;;;;5010352;28;20045;-70
2022/04/10 12:51:12;;;;;;;5.47;1.50;;;10.70;99.90;;;;;;5005523;28;20045;-74
2022/04/10 12:53:38;;;;;;;5.22;1.20;;;10.80;99.90;;;;;;5004657;28;20060;-72
2022/04/10 12:56:16;;;;;;;6.63;1.98;;;11.00;99.90;;;;;;5003796;28;20764;-72
2022/04/10 12:58:47;;;;;;;9.68;1.50;;;11.10;99.90;;;;;;5025077;28;20052;-73
2022/04/10 13:01:30;;;;;;;6.45;1.70;;;11.10;99.90;;;;;;5026461;28;20421;-72